sensor_id;sensor_type;location;lat;lon;timestamp;pressure;altitude;pressure_sealevel;temperature;humidity
36600;BME280;35385;55.668;37.508;2023-04-07T00:00:40;100066.91;;;5.34;100.00
36600;BME280;35385;55.668;37.508;2023-04-07T00:01:41;100078.38;;;5.51;100.00
36600;BME280;35385;55.668;37.508;2023-04-07T00:02:41;100089.59;;;5.56;100.00
36600;BME280;35385;55.668;37.508;2023-04-07T00:03:42;100093.94;;;5.41;100.00
36600;BME280;35385;55.668;37.508;2023-04-07T00:04:43;100091.63;;;5.51;100.00
36600;BME280;35385;55.668;37.508;2023-04-07T00:05:43;100049.13;;;5.21;100.00
36600;BME280;35385;55.668;37.508;2023-04-07T00:06:44;100093.88;;;5.43;100.00
36600;BME280;35385;55.668;37.508;2023-04-07T00:07:44;100098.06;;;5.47;100.00
36600;BME280;35385;55.668;37.508;2023-04-07T00:08:45;100086.09;;;5.55;100.00
36600;BME280;35385;55.668;37.508;2023-04-07T00:09:46;100079.69;;;5.44;100.00
36600;BME280;35385;55.668;37.508;2023-04-07T00:10:46;100095.13;;;5.51;100.00
36600;BME280;35385;55.668;37.508;2023-04-07T00:11:47;100090.28;;;5.44;100.00
36600;BME280;35385;55.668;37.508;2023-04-07T00:12:47;100048.00;;;5.09;100.00
36600;BME280;35385;55.668;37.508;2023-04-07T00:13:48;100099.41;;;5.38;100.00
36600;BME280;35385;55.668;37.508;2023-04-07T00:14:49;100094.88;;;5.40;100.00
36600;BME280;35385;55.668;37.508;2023-04-07T00:15:49;100094.03;;;5.40;100.00
36600;BME280;35385;55.668;37.508;2023-04-07T00:16:50;99943.53;;;4.50;100.00
36600;BME280;35385;55.668;37.508;2023-04-07T00:17:51;100093.69;;;5.46;100.00
36600;BME280;35385;55.668;37.508;2023-04-07T00:18:51;100097.94;;;5.48;100.00
36600;BME280;35385;55.668;37.508;2023-04-07T00:19:52;100041.53;;;5.15;100.00
36600;BME280;35385;55.668;37.508;2023-04-07T00:20:52;100092.31;;;5.54;100.00
36600;BME280;35385;55.668;37.508;2023-04-07T00:21:53;100086.94;;;5.56;100.00
36600;BME280;35385;55.668;37.508;2023-04-07T00:22:53;100074.38;;;5.44;100.00
36600;BME280;35385;55.668;37.508;2023-04-07T00:23:54;100087.94;;;5.38;100.00
36600;BME280;35385;55.668;37.508;2023-04-07T00:24:54;100091.44;;;5.38;100.00
36600;BME280;35385;55.668;37.508;2023-04-07T00:25:55;100085.56;;;5.49;100.00
36600;BME280;35385;55.668;37.508;2023-04-07T00:26:55;100095.75;;;5.56;100.00
36600;BME280;35385;55.668;37.508;2023-04-07T00:27:56;100084.06;;;5.60;100.00
36600;BME280;35385;55.668;37.508;2023-04-07T00:28:57;100099.25;;;5.57;100.00
36600;BME280;35385;55.668;37.508;2023-04-07T00:29:58;100042.66;;;5.26;100.00
36600;BME280;35385;55.668;37.508;2023-04-07T00:30:59;100097.13;;;5.48;100.00
36600;BME280;35385;55.668;37.508;2023-04-07T00:31:59;100051.03;;;5.19;100.00
36600;BME280;35385;55.668;37.508;2023-04-07T00:33:00;100092.75;;;5.47;100.00
36600;BME280;35385;55.668;37.508;2023-04-07T00:34:00;100061.97;;;5.28;100.00
36600;BME280;35385;55.668;37.508;2023-04-07T00:35:01;100011.88;;;5.08;100.00
36600;BME280;35385;55.668;37.508;2023-04-07T00:36:01;100085.22;;;5.55;100.00
36600;BME280;35385;55.668;37.508;2023-04-07T00:37:02;100078.38;;;5.51;100.00
36600;BME280;35385;55.668;37.508;2023-04-07T00:38:02;100095.06;;;5.53;100.00
36600;BME280;35385;55.668;37.508;2023-04-07T00:39:03;100100.28;;;5.54;100.00
36600;BME280;35385;55.668;37.508;2023-04-07T00:40:04;100102.31;;;5.49;100.00
36600;BME280;35385;55.668;37.508;2023-04-07T00:41:05;100095.91;;;5.38;100.00
36600;BME280;35385;55.668;37.508;2023-04-07T00:42:06;100094.25;;;5.35;100.00
36600;BME280;35385;55.668;37.508;2023-04-07T00:43:06;100037.56;;;5.06;100.00
36600;BME280;35385;55.668;37.508;2023-04-07T00:44:07;100102.66;;;5.43;100.00
36600;BME280;35385;55.668;37.508;2023-04-07T00:45:08;100097.69;;;5.37;100.00
36600;BME280;35385;55.668;37.508;2023-04-07T00:46:09;100085.19;;;5.23;100.00
36600;BME280;35385;55.668;37.508;2023-04-07T00:47:10;100096.81;;;5.21;100.00
36600;BME280;35385;55.668;37.508;2023-04-07T00:48:11;100095.94;;;5.20;100.00
36600;BME280;35385;55.668;37.508;2023-04-07T00:49:12;100094.03;;;5.07;100.00
36600;BME280;35385;55.668;37.508;2023-04-07T00:50:12;100086.16;;;5.05;100.00
36600;BME280;35385;55.668;37.508;2023-04-07T00:51:13;100091.84;;;5.15;100.00
36600;BME280;35385;55.668;37.508;2023-04-07T00:52:14;100096.13;;;5.17;100.00
36600;BME280;35385;55.668;37.508;2023-04-07T00:53:16;100091.69;;;5.18;100.00
36600;BME280;35385;55.668;37.508;2023-04-07T00:54:17;100049.09;;;5.05;100.00
36600;BME280;35385;55.668;37.508;2023-04-07T00:55:18;100094.25;;;5.35;100.00
36600;BME280;35385;55.668;37.508;2023-04-07T00:56:18;100085.56;;;5.33;100.00
36600;BME280;35385;55.668;37.508;2023-04-07T00:57:19;99991.28;;;4.65;100.00
36600;BME280;35385;55.668;37.508;2023-04-07T00:58:20;100088.78;;;5.22;100.00
36600;BME280;35385;55.668;37.508;2023-04-07T00:59:20;100051.31;;;4.97;100.00
36600;BME280;35385;55.668;37.508;2023-04-07T01:00:21;100084.69;;;5.17;100.00
36600;BME280;35385;55.668;37.508;2023-04-07T01:01:25;100074.56;;;5.08;100.00
36600;BME280;35385;55.668;37.508;2023-04-07T01:03:00;100087.34;;;5.17;100.00
36600;BME280;35385;55.668;37.508;2023-04-07T01:04:16;100093.91;;;5.25;100.00
36600;BME280;35385;55.668;37.508;2023-04-07T01:05:30;100080.88;;;5.05;100.00
36600;BME280;35385;55.668;37.508;2023-04-07T01:06:38;100079.50;;;4.98;100.00
36600;BME280;35385;55.668;37.508;2023-04-07T01:09:01;100087.66;;;5.11;100.00
36600;BME280;35385;55.668;37.508;2023-04-07T01:10:04;100104.63;;;5.07;100.00
36600;BME280;35385;55.668;37.508;2023-04-07T01:12:38;100086.72;;;5.12;100.00
36600;BME280;35385;55.668;37.508;2023-04-07T01:13:50;100092.88;;;5.12;100.00
36600;BME280;35385;55.668;37.508;2023-04-07T01:14:56;100048.53;;;4.83;100.00
36600;BME280;35385;55.668;37.508;2023-04-07T01:15:59;100089.44;;;5.10;100.00
36600;BME280;35385;55.668;37.508;2023-04-07T01:17:02;100099.88;;;5.13;100.00
36600;BME280;35385;55.668;37.508;2023-04-07T01:18:12;100099.94;;;5.12;100.00
36600;BME280;35385;55.668;37.508;2023-04-07T01:20:18;100107.34;;;5.05;100.00
36600;BME280;35385;55.668;37.508;2023-04-07T01:21:21;100105.31;;;5.10;100.00
36600;BME280;35385;55.668;37.508;2023-04-07T01:22:32;100102.41;;;4.99;100.00
36600;BME280;35385;55.668;37.508;2023-04-07T01:24:48;100098.28;;;4.93;100.00
36600;BME280;35385;55.668;37.508;2023-04-07T01:26:06;100090.19;;;4.79;100.00
36600;BME280;35385;55.668;37.508;2023-04-07T01:27:30;100096.50;;;4.77;100.00
36600;BME280;35385;55.668;37.508;2023-04-07T01:29:44;100049.44;;;4.49;100.00
36600;BME280;35385;55.668;37.508;2023-04-07T01:30:47;100001.88;;;4.14;100.00
36600;BME280;35385;55.668;37.508;2023-04-07T01:31:49;100086.25;;;4.71;100.00
36600;BME280;35385;55.668;37.508;2023-04-07T01:32:51;100057.00;;;4.56;100.00
36600;BME280;35385;55.668;37.508;2023-04-07T01:33:54;100051.84;;;4.53;100.00
36600;BME280;35385;55.668;37.508;2023-04-07T01:34:56;100094.63;;;4.79;100.00
36600;BME280;35385;55.668;37.508;2023-04-07T01:35:59;100105.69;;;4.87;100.00
36600;BME280;35385;55.668;37.508;2023-04-07T01:37:01;100106.34;;;4.75;100.00
36600;BME280;35385;55.668;37.508;2023-04-07T01:38:04;100100.09;;;4.76;100.00
36600;BME280;35385;55.668;37.508;2023-04-07T01:39:06;100096.75;;;4.72;100.00
36600;BME280;35385;55.668;37.508;2023-04-07T01:40:07;100100.25;;;4.73;100.00
36600;BME280;35385;55.668;37.508;2023-04-07T01:41:08;100056.78;;;4.44;100.00
36600;BME280;35385;55.668;37.508;2023-04-07T01:42:11;100092.84;;;4.62;100.00
36600;BME280;35385;55.668;37.508;2023-04-07T01:43:12;100095.28;;;4.67;100.00
36600;BME280;35385;55.668;37.508;2023-04-07T01:44:13;100090.13;;;4.63;100.00
36600;BME280;35385;55.668;37.508;2023-04-07T01:45:16;100098.53;;;4.72;100.00
36600;BME280;35385;55.668;37.508;2023-04-07T01:46:17;100049.38;;;4.50;100.00
36600;BME280;35385;55.668;37.508;2023-04-07T01:47:18;100108.34;;;4.87;100.00
36600;BME280;35385;55.668;37.508;2023-04-07T01:48:19;100054.44;;;4.55;100.00
36600;BME280;35385;55.668;37.508;2023-04-07T01:49:20;100095.88;;;4.89;100.00
36600;BME280;35385;55.668;37.508;2023-04-07T01:50:21;100099.00;;;4.80;100.00
36600;BME280;35385;55.668;37.508;2023-04-07T01:51:22;100041.13;;;4.39;100.00
36600;BME280;35385;55.668;37.508;2023-04-07T01:52:25;100096.97;;;4.68;100.00
36600;BME280;35385;55.668;37.508;2023-04-07T01:53:26;100095.81;;;4.73;100.00
36600;BME280;35385;55.668;37.508;2023-04-07T01:54:27;100096.97;;;4.68;100.00
36600;BME280;35385;55.668;37.508;2023-04-07T01:55:28;100099.31;;;4.74;100.00
36600;BME280;35385;55.668;37.508;2023-04-07T01:56:28;100078.88;;;4.60;100.00
36600;BME280;35385;55.668;37.508;2023-04-07T01:57:29;100105.34;;;4.60;100.00
36600;BME280;35385;55.668;37.508;2023-04-07T01:58:30;100095.41;;;4.63;100.00
36600;BME280;35385;55.668;37.508;2023-04-07T01:59:30;100093.47;;;4.67;100.00
36600;BME280;35385;55.668;37.508;2023-04-07T02:00:31;100094.34;;;4.50;100.00
36600;BME280;35385;55.668;37.508;2023-04-07T02:01:33;100101.50;;;4.48;100.00
36600;BME280;35385;55.668;37.508;2023-04-07T02:02:35;100079.47;;;4.48;100.00
36600;BME280;35385;55.668;37.508;2023-04-07T02:03:45;100097.47;;;4.58;100.00
36600;BME280;35385;55.668;37.508;2023-04-07T02:04:54;100110.78;;;4.57;100.00
36600;BME280;35385;55.668;37.508;2023-04-07T02:06:00;100101.81;;;4.59;100.00
36600;BME280;35385;55.668;37.508;2023-04-07T02:07:58;100107.97;;;4.43;100.00
36600;BME280;35385;55.668;37.508;2023-04-07T02:09:04;100047.34;;;4.04;100.00
36600;BME280;35385;55.668;37.508;2023-04-07T02:10:09;100100.25;;;4.38;100.00
36600;BME280;35385;55.668;37.508;2023-04-07T02:11:11;100089.66;;;4.38;100.00
36600;BME280;35385;55.668;37.508;2023-04-07T02:12:14;100069.44;;;4.20;100.00
36600;BME280;35385;55.668;37.508;2023-04-07T02:13:17;100096.91;;;4.35;100.00
36600;BME280;35385;55.668;37.508;2023-04-07T02:14:19;100110.69;;;4.41;100.00
36600;BME280;35385;55.668;37.508;2023-04-07T02:15:22;100100.81;;;4.28;100.00
36600;BME280;35385;55.668;37.508;2023-04-07T02:16:24;100101.16;;;4.20;100.00
36600;BME280;35385;55.668;37.508;2023-04-07T02:17:26;100110.97;;;4.35;100.00
36600;BME280;35385;55.668;37.508;2023-04-07T02:18:29;100110.03;;;4.36;100.00
36600;BME280;35385;55.668;37.508;2023-04-07T02:19:32;100092.47;;;4.18;100.00
36600;BME280;35385;55.668;37.508;2023-04-07T02:20:35;100105.19;;;4.10;100.00
36600;BME280;35385;55.668;37.508;2023-04-07T02:21:38;100002.47;;;3.49;100.00
36600;BME280;35385;55.668;37.508;2023-04-07T02:22:40;100104.44;;;4.25;100.00
36600;BME280;35385;55.668;37.508;2023-04-07T02:23:41;100099.09;;;4.26;100.00
36600;BME280;35385;55.668;37.508;2023-04-07T02:24:42;100113.03;;;4.30;100.00
36600;BME280;35385;55.668;37.508;2023-04-07T02:25:43;100093.56;;;4.14;100.00
36600;BME280;35385;55.668;37.508;2023-04-07T02:26:43;100106.63;;;4.17;100.00
36600;BME280;35385;55.668;37.508;2023-04-07T02:27:44;100100.84;;;4.09;100.00
36600;BME280;35385;55.668;37.508;2023-04-07T02:28:44;100113.63;;;4.18;100.00
36600;BME280;35385;55.668;37.508;2023-04-07T02:29:45;100102.44;;;4.30;100.00
36600;BME280;35385;55.668;37.508;2023-04-07T02:30:45;100107.41;;;4.36;100.00
36600;BME280;35385;55.668;37.508;2023-04-07T02:31:46;100110.31;;;4.32;100.00
36600;BME280;35385;55.668;37.508;2023-04-07T02:32:46;100072.66;;;3.90;100.00
36600;BME280;35385;55.668;37.508;2023-04-07T02:33:47;100112.31;;;4.26;100.00
36600;BME280;35385;55.668;37.508;2023-04-07T02:34:47;100102.25;;;4.33;100.00
36600;BME280;35385;55.668;37.508;2023-04-07T02:35:48;100110.31;;;4.32;100.00
36600;BME280;35385;55.668;37.508;2023-04-07T02:36:49;100099.22;;;4.23;100.00
36600;BME280;35385;55.668;37.508;2023-04-07T02:37:49;100102.59;;;4.27;100.00
36600;BME280;35385;55.668;37.508;2023-04-07T02:38:50;100108.25;;;4.19;100.00
36600;BME280;35385;55.668;37.508;2023-04-07T02:39:51;100093.72;;;4.28;100.00
36600;BME280;35385;55.668;37.508;2023-04-07T02:40:51;100061.31;;;4.06;100.00
36600;BME280;35385;55.668;37.508;2023-04-07T02:41:52;100094.44;;;4.32;100.00
36600;BME280;35385;55.668;37.508;2023-04-07T02:42:52;100064.47;;;4.14;100.00
36600;BME280;35385;55.668;37.508;2023-04-07T02:43:53;100103.03;;;4.35;100.00
36600;BME280;35385;55.668;37.508;2023-04-07T02:44:53;100112.22;;;4.28;100.00
36600;BME280;35385;55.668;37.508;2023-04-07T02:45:54;100110.19;;;4.16;100.00
36600;BME280;35385;55.668;37.508;2023-04-07T02:46:55;100112.84;;;4.16;100.00
36600;BME280;35385;55.668;37.508;2023-04-07T02:47:56;100118.88;;;4.01;100.00
36600;BME280;35385;55.668;37.508;2023-04-07T02:48:56;100110.38;;;3.94;100.00
36600;BME280;35385;55.668;37.508;2023-04-07T02:49:57;100111.09;;;3.98;100.00
36600;BME280;35385;55.668;37.508;2023-04-07T02:50:57;100112.94;;;3.96;100.00
36600;BME280;35385;55.668;37.508;2023-04-07T02:51:58;100112.94;;;3.96;100.00
36600;BME280;35385;55.668;37.508;2023-04-07T02:52:58;100071.41;;;3.62;100.00
36600;BME280;35385;55.668;37.508;2023-04-07T02:53:59;100120.22;;;3.90;100.00
36600;BME280;35385;55.668;37.508;2023-04-07T02:55:00;100116.53;;;3.95;100.00
36600;BME280;35385;55.668;37.508;2023-04-07T02:56:00;100123.38;;;3.99;100.00
36600;BME280;35385;55.668;37.508;2023-04-07T02:57:01;100111.94;;;3.98;100.00
36600;BME280;35385;55.668;37.508;2023-04-07T02:58:01;100113.66;;;3.99;100.00
36600;BME280;35385;55.668;37.508;2023-04-07T02:59:02;100114.59;;;3.98;100.00
36600;BME280;35385;55.668;37.508;2023-04-07T03:00:03;100127.09;;;3.95;100.00
36600;BME280;35385;55.668;37.508;2023-04-07T03:01:04;100125.63;;;3.89;100.00
36600;BME280;35385;55.668;37.508;2023-04-07T03:02:04;100123.59;;;3.94;100.00
36600;BME280;35385;55.668;37.508;2023-04-07T03:03:05;100109.31;;;3.79;100.00
36600;BME280;35385;55.668;37.508;2023-04-07T03:04:06;100118.97;;;3.80;100.00
36600;BME280;35385;55.668;37.508;2023-04-07T03:05:07;100117.59;;;3.90;100.00
36600;BME280;35385;55.668;37.508;2023-04-07T03:06:07;100128.94;;;3.92;100.00
36600;BME280;35385;55.668;37.508;2023-04-07T03:07:08;100124.75;;;3.88;100.00
36600;BME280;35385;55.668;37.508;2023-04-07T03:08:08;100124.66;;;3.90;100.00
36600;BME280;35385;55.668;37.508;2023-04-07T03:09:09;100106.59;;;3.81;100.00
36600;BME280;35385;55.668;37.508;2023-04-07T03:10:10;100119.94;;;3.97;100.00
36600;BME280;35385;55.668;37.508;2023-04-07T03:11:10;100107.59;;;3.97;100.00
36600;BME280;35385;55.668;37.508;2023-04-07T03:12:11;100112.03;;;3.97;100.00
36600;BME280;35385;55.668;37.508;2023-04-07T03:13:12;100130.38;;;4.00;100.00
36600;BME280;35385;55.668;37.508;2023-04-07T03:14:15;100099.69;;;3.78;100.00
36600;BME280;35385;55.668;37.508;2023-04-07T03:15:16;100077.47;;;3.64;100.00
36600;BME280;35385;55.668;37.508;2023-04-07T03:16:16;100127.09;;;3.95;100.00
36600;BME280;35385;55.668;37.508;2023-04-07T03:17:17;100127.22;;;3.91;100.00
36600;BME280;35385;55.668;37.508;2023-04-07T03:18:17;100125.31;;;3.95;100.00
36600;BME280;35385;55.668;37.508;2023-04-07T03:19:18;100088.97;;;3.63;100.00
36600;BME280;35385;55.668;37.508;2023-04-07T03:20:18;100127.41;;;3.88;100.00
36600;BME280;35385;55.668;37.508;2023-04-07T03:21:19;100126.88;;;3.99;100.00
36600;BME280;35385;55.668;37.508;2023-04-07T03:22:19;100129.53;;;3.99;100.00
36600;BME280;35385;55.668;37.508;2023-04-07T03:23:20;100128.94;;;3.92;100.00
36600;BME280;35385;55.668;37.508;2023-04-07T03:24:23;100076.50;;;3.66;100.00
36600;BME280;35385;55.668;37.508;2023-04-07T03:25:24;100130.38;;;4.00;100.00
36600;BME280;35385;55.668;37.508;2023-04-07T03:26:24;100129.91;;;4.09;100.00
36600;BME280;35385;55.668;37.508;2023-04-07T03:27:25;100130.78;;;4.09;100.00
36600;BME280;35385;55.668;37.508;2023-04-07T03:28:25;100135.34;;;4.06;100.00
36600;BME280;35385;55.668;37.508;2023-04-07T03:29:26;100124.44;;;3.95;100.00
36600;BME280;35385;55.668;37.508;2023-04-07T03:30:26;100116.03;;;3.86;100.00
36600;BME280;35385;55.668;37.508;2023-04-07T03:31:27;100131.38;;;3.97;100.00
36600;BME280;35385;55.668;37.508;2023-04-07T03:32:29;100064.00;;;3.51;100.00
36600;BME280;35385;55.668;37.508;2023-04-07T03:33:30;100104.69;;;3.84;100.00
36600;BME280;35385;55.668;37.508;2023-04-07T03:34:30;100102.69;;;3.89;100.00
36600;BME280;35385;55.668;37.508;2023-04-07T03:35:31;100133.81;;;4.02;100.00
36600;BME280;35385;55.668;37.508;2023-04-07T03:36:31;100125.38;;;3.94;100.00
36600;BME280;35385;55.668;37.508;2023-04-07T03:37:32;100131.59;;;3.92;100.00
36600;BME280;35385;55.668;37.508;2023-04-07T03:38:32;100133.38;;;3.92;100.00
36600;BME280;35385;55.668;37.508;2023-04-07T03:39:33;100143.88;;;3.94;100.00
36600;BME280;35385;55.668;37.508;2023-04-07T03:40:36;100135.28;;;3.71;100.00
36600;BME280;35385;55.668;37.508;2023-04-07T03:41:37;100138.25;;;3.82;100.00
36600;BME280;35385;55.668;37.508;2023-04-07T03:42:37;100104.56;;;3.50;100.00
36600;BME280;35385;55.668;37.508;2023-04-07T03:43:38;100139.03;;;3.66;100.00
36600;BME280;35385;55.668;37.508;2023-04-07T03:44:38;100151.66;;;3.78;100.00
36600;BME280;35385;55.668;37.508;2023-04-07T03:45:39;100150.81;;;3.77;100.00
36600;BME280;35385;55.668;37.508;2023-04-07T03:46:39;100118.56;;;3.52;100.00
36600;BME280;35385;55.668;37.508;2023-04-07T03:47:40;100141.34;;;3.73;100.00
36600;BME280;35385;55.668;37.508;2023-04-07T03:48:41;100110.63;;;3.71;100.00
36600;BME280;35385;55.668;37.508;2023-04-07T03:49:41;100151.03;;;3.91;100.00
36600;BME280;35385;55.668;37.508;2023-04-07T03:50:42;100129.69;;;3.77;100.00
36600;BME280;35385;55.668;37.508;2023-04-07T03:51:42;100148.25;;;3.95;100.00
36600;BME280;35385;55.668;37.508;2023-04-07T03:52:43;100139.19;;;3.81;100.00
36600;BME280;35385;55.668;37.508;2023-04-07T03:53:43;100096.69;;;3.67;100.00
36600;BME280;35385;55.668;37.508;2023-04-07T03:54:44;100131.44;;;3.96;100.00
36600;BME280;35385;55.668;37.508;2023-04-07T03:55:45;100154.38;;;4.14;100.00
36600;BME280;35385;55.668;37.508;2023-04-07T03:56:45;100138.50;;;4.14;100.00
36600;BME280;35385;55.668;37.508;2023-04-07T03:57:46;100151.22;;;4.06;100.00
36600;BME280;35385;55.668;37.508;2023-04-07T03:58:47;100102.84;;;3.86;100.00
36600;BME280;35385;55.668;37.508;2023-04-07T03:59:48;100154.22;;;4.17;100.00
36600;BME280;35385;55.668;37.508;2023-04-07T04:00:50;100094.97;;;3.66;100.00
36600;BME280;35385;55.668;37.508;2023-04-07T04:01:51;100147.63;;;3.89;100.00
36600;BME280;35385;55.668;37.508;2023-04-07T04:02:52;100096.69;;;3.67;100.00
36600;BME280;35385;55.668;37.508;2023-04-07T04:03:52;100139.16;;;4.00;100.00
36600;BME280;35385;55.668;37.508;2023-04-07T04:04:53;100149.53;;;4.22;100.00
36600;BME280;35385;55.668;37.508;2023-04-07T04:05:53;100109.91;;;3.86;100.00
36600;BME280;35385;55.668;37.508;2023-04-07T04:06:54;100112.91;;;3.78;100.00
36600;BME280;35385;55.668;37.508;2023-04-07T04:07:54;100134.09;;;3.96;100.00
36600;BME280;35385;55.668;37.508;2023-04-07T04:08:55;100151.38;;;4.03;100.00
36600;BME280;35385;55.668;37.508;2023-04-07T04:09:55;100160.06;;;4.05;100.00
36600;BME280;35385;55.668;37.508;2023-04-07T04:10:56;100160.00;;;4.06;100.00
36600;BME280;35385;55.668;37.508;2023-04-07T04:11:57;100108.13;;;3.86;100.00
36600;BME280;35385;55.668;37.508;2023-04-07T04:12:57;100155.94;;;4.18;100.00
36600;BME280;35385;55.668;37.508;2023-04-07T04:14:02;100136.19;;;4.25;100.00
36600;BME280;35385;55.668;37.508;2023-04-07T04:15:03;100125.84;;;4.38;100.00
36600;BME280;35385;55.668;37.508;2023-04-07T04:16:04;100120.25;;;4.44;100.00
36600;BME280;35385;55.668;37.508;2023-04-07T04:17:05;100152.56;;;4.68;100.00
36600;BME280;35385;55.668;37.508;2023-04-07T04:18:05;100152.34;;;4.72;100.00
36600;BME280;35385;55.668;37.508;2023-04-07T04:19:06;100156.50;;;4.76;100.00
36600;BME280;35385;55.668;37.508;2023-04-07T04:20:07;100161.28;;;4.70;100.00
36600;BME280;35385;55.668;37.508;2023-04-07T04:21:08;100161.34;;;4.68;100.00
36600;BME280;35385;55.668;37.508;2023-04-07T04:22:08;100136.00;;;4.47;100.00
36600;BME280;35385;55.668;37.508;2023-04-07T04:23:09;100095.88;;;4.20;100.00
36600;BME280;35385;55.668;37.508;2023-04-07T04:24:09;100153.31;;;4.52;100.00
36600;BME280;35385;55.668;37.508;2023-04-07T04:25:10;100153.97;;;4.57;100.00
36600;BME280;35385;55.668;37.508;2023-04-07T04:26:10;100143.22;;;4.60;100.00
36600;BME280;35385;55.668;37.508;2023-04-07T04:27:11;100105.25;;;4.44;100.00
36600;BME280;35385;55.668;37.508;2023-04-07T04:28:11;100164.56;;;4.75;100.00
36600;BME280;35385;55.668;37.508;2023-04-07T04:29:12;100155.19;;;4.68;100.00
36600;BME280;35385;55.668;37.508;2023-04-07T04:30:13;100159.09;;;4.60;100.00
36600;BME280;35385;55.668;37.508;2023-04-07T04:31:13;100159.09;;;4.78;100.00
36600;BME280;35385;55.668;37.508;2023-04-07T04:32:14;100169.53;;;4.81;100.00
36600;BME280;35385;55.668;37.508;2023-04-07T04:33:14;100159.16;;;4.76;100.00
36600;BME280;35385;55.668;37.508;2023-04-07T04:34:15;100158.06;;;4.80;100.00
36600;BME280;35385;55.668;37.508;2023-04-07T04:35:16;100160.66;;;4.99;100.00
36600;BME280;35385;55.668;37.508;2023-04-07T04:36:17;100151.00;;;4.98;100.00
36600;BME280;35385;55.668;37.508;2023-04-07T04:37:17;100156.50;;;4.93;100.00
36600;BME280;35385;55.668;37.508;2023-04-07T04:38:18;100157.59;;;5.07;100.00
36600;BME280;35385;55.668;37.508;2023-04-07T04:39:18;100166.22;;;5.27;100.00
36600;BME280;35385;55.668;37.508;2023-04-07T04:40:19;100164.84;;;5.36;100.00
36600;BME280;35385;55.668;37.508;2023-04-07T04:41:20;100155.75;;;5.42;100.00
36600;BME280;35385;55.668;37.508;2023-04-07T04:42:20;100158.19;;;5.29;100.00
36600;BME280;35385;55.668;37.508;2023-04-07T04:43:21;100161.47;;;5.50;100.00
36600;BME280;35385;55.668;37.508;2023-04-07T04:44:21;100168.16;;;5.57;100.00
36600;BME280;35385;55.668;37.508;2023-04-07T04:45:22;100164.31;;;5.47;100.00
36600;BME280;35385;55.668;37.508;2023-04-07T04:46:23;100155.91;;;5.39;100.00
36600;BME280;35385;55.668;37.508;2023-04-07T04:47:24;100160.81;;;5.46;100.00
36600;BME280;35385;55.668;37.508;2023-04-07T04:48:24;100169.34;;;5.51;100.00
36600;BME280;35385;55.668;37.508;2023-04-07T04:49:25;100176.16;;;5.40;100.00
36600;BME280;35385;55.668;37.508;2023-04-07T04:50:25;100176.31;;;5.37;100.00
36600;BME280;35385;55.668;37.508;2023-04-07T04:51:26;100160.09;;;5.43;100.00
36600;BME280;35385;55.668;37.508;2023-04-07T04:52:27;100131.78;;;5.27;100.00
36600;BME280;35385;55.668;37.508;2023-04-07T04:53:28;100173.63;;;5.54;100.00
36600;BME280;35385;55.668;37.508;2023-04-07T04:54:28;100165.06;;;5.49;100.00
36600;BME280;35385;55.668;37.508;2023-04-07T04:55:29;100180.47;;;5.58;100.00
36600;BME280;35385;55.668;37.508;2023-04-07T04:56:29;100173.78;;;5.51;100.00
36600;BME280;35385;55.668;37.508;2023-04-07T04:57:30;100179.84;;;5.20;100.00
36600;BME280;35385;55.668;37.508;2023-04-07T04:58:30;100135.03;;;4.65;100.00
36600;BME280;35385;55.668;37.508;2023-04-07T04:59:32;100181.53;;;4.88;100.00
36600;BME280;35385;55.668;37.508;2023-04-07T05:00:32;100172.94;;;5.00;100.00
36600;BME280;35385;55.668;37.508;2023-04-07T05:01:33;100140.25;;;4.67;100.00
36600;BME280;35385;55.668;37.508;2023-04-07T05:02:34;100125.63;;;4.59;100.00
36600;BME280;35385;55.668;37.508;2023-04-07T05:03:34;100179.19;;;4.99;100.00
36600;BME280;35385;55.668;37.508;2023-04-07T05:04:35;100145.63;;;4.82;100.00
36600;BME280;35385;55.668;37.508;2023-04-07T05:05:35;100189.91;;;5.13;100.00
36600;BME280;35385;55.668;37.508;2023-04-07T05:06:36;100190.22;;;5.24;100.00
36600;BME280;35385;55.668;37.508;2023-04-07T05:07:36;100184.94;;;5.07;100.00
36600;BME280;35385;55.668;37.508;2023-04-07T05:08:39;100180.47;;;5.08;100.00
36600;BME280;35385;55.668;37.508;2023-04-07T05:09:40;100149.56;;;4.91;100.00
36600;BME280;35385;55.668;37.508;2023-04-07T05:10:40;100172.09;;;5.00;100.00
36600;BME280;35385;55.668;37.508;2023-04-07T05:11:41;100184.19;;;4.88;100.00
36600;BME280;35385;55.668;37.508;2023-04-07T05:12:41;100190.84;;;4.78;100.00
36600;BME280;35385;55.668;37.508;2023-04-07T05:13:42;100193.81;;;4.72;100.00
36600;BME280;35385;55.668;37.508;2023-04-07T05:14:42;100186.31;;;4.62;100.00
36600;BME280;35385;55.668;37.508;2023-04-07T05:15:43;100186.66;;;4.74;100.00
36600;BME280;35385;55.668;37.508;2023-04-07T05:16:43;100190.53;;;4.67;100.00
36600;BME280;35385;55.668;37.508;2023-04-07T05:17:44;100191.97;;;4.74;100.00
36600;BME280;35385;55.668;37.508;2023-04-07T05:18:49;100132.47;;;4.63;100.00
36600;BME280;35385;55.668;37.508;2023-04-07T05:19:50;100181.81;;;4.99;100.00
36600;BME280;35385;55.668;37.508;2023-04-07T05:20:50;100180.47;;;5.08;100.00
36600;BME280;35385;55.668;37.508;2023-04-07T05:21:51;100188.84;;;5.00;100.00
36600;BME280;35385;55.668;37.508;2023-04-07T05:22:51;100196.72;;;5.02;100.00
36600;BME280;35385;55.668;37.508;2023-04-07T05:23:52;100187.13;;;4.99;100.00
36600;BME280;35385;55.668;37.508;2023-04-07T05:24:53;100180.97;;;4.98;100.00